createdAt,value
2016-11-17T00:01:04.572Z,926.66
2016-11-17T00:02:14.899Z,926.61
2016-11-17T00:03:25.229Z,926.58
2016-11-17T00:04:35.587Z,926.6
2016-11-17T00:05:45.914Z,926.64
2016-11-17T00:06:56.262Z,926.69
2016-11-17T00:08:06.616Z,926.66
2016-11-17T00:09:16.938Z,926.72
2016-11-17T00:10:27.463Z,926.75
2016-11-17T00:11:37.793Z,926.77
2016-11-17T00:12:48.615Z,926.82
2016-11-17T00:13:58.941Z,926.88
2016-11-17T00:15:09.264Z,926.91
2016-11-17T00:16:19.618Z,926.87
2016-11-17T00:17:29.940Z,926.91
2016-11-17T00:18:40.260Z,926.9
2016-11-17T00:19:50.580Z,926.93
2016-11-17T00:21:00.902Z,926.94
2016-11-17T00:22:11.420Z,926.96
2016-11-17T00:23:21.740Z,926.98
2016-11-17T00:24:32.063Z,927.02
2016-11-17T00:25:42.385Z,927.01
2016-11-17T00:26:52.710Z,927.06
2016-11-17T00:28:03.029Z,927.06
2016-11-17T00:29:13.347Z,927.03
2016-11-17T00:30:23.706Z,927.03
2016-11-17T00:31:48.596Z,926.98
2016-11-17T00:32:58.916Z,926.94
2016-11-17T00:34:09.242Z,927.01
2016-11-17T00:35:19.571Z,927.08
2016-11-17T00:36:29.889Z,927.09
2016-11-17T00:37:40.221Z,927.06
2016-11-17T00:38:50.747Z,927.1
2016-11-17T00:40:01.065Z,927.14
2016-11-17T00:41:11.861Z,927.21
2016-11-17T00:42:22.180Z,927.25
2016-11-17T00:43:32.502Z,927.26
2016-11-17T00:44:42.823Z,927.26
2016-11-17T00:45:53.176Z,927.22
2016-11-17T00:47:04.004Z,927.23
2016-11-17T00:48:14.327Z,927.2
2016-11-17T00:49:24.650Z,927.17
2016-11-17T00:50:35.171Z,927.17
2016-11-17T00:51:45.492Z,927.2
2016-11-17T00:52:55.813Z,927.24
2016-11-17T00:54:06.171Z,927.25
2016-11-17T00:55:16.496Z,927.25
2016-11-17T00:56:26.818Z,927.26
2016-11-17T00:57:37.138Z,927.2
2016-11-17T00:58:47.459Z,927.25
2016-11-17T00:59:57.780Z,927.27
2016-11-17T01:01:08.105Z,927.31
2016-11-17T01:02:18.640Z,927.27
2016-11-17T01:03:29.081Z,927.22
2016-11-17T01:04:39.523Z,927.18
2016-11-17T01:05:50.453Z,927.13
2016-11-17T01:07:00.887Z,927.07
2016-11-17T01:08:11.529Z,927.04
2016-11-17T01:09:21.967Z,927
2016-11-17T01:10:32.409Z,926.93
2016-11-17T01:11:42.849Z,926.94
2016-11-17T01:12:53.289Z,926.9
2016-11-17T01:14:03.731Z,926.93
2016-11-17T01:15:14.177Z,926.99
2016-11-17T01:17:49.593Z,927.04
2016-11-17T01:19:00.032Z,927.1
2016-11-17T01:20:10.671Z,927.05
2016-11-17T01:21:21.108Z,927.03
2016-11-17T01:22:31.545Z,927.05
2016-11-17T01:23:41.985Z,927.06
2016-11-17T01:24:52.650Z,927.06
2016-11-17T01:26:03.092Z,927.09
2016-11-17T01:27:13.540Z,927.07
2016-11-17T01:28:53.069Z,927.08
2016-11-17T01:30:03.711Z,927.11
2016-11-17T01:31:14.160Z,927.11
2016-11-17T01:32:25.084Z,927.06
2016-11-17T01:33:35.524Z,927.07
2016-11-17T01:34:45.962Z,927.05
2016-11-17T01:35:56.412Z,927.05
2016-11-17T01:38:31.734Z,927.23
2016-11-17T01:39:42.064Z,927.36
2016-11-17T01:40:52.384Z,927.5
2016-11-17T01:42:02.748Z,927.65
2016-11-17T01:43:13.075Z,927.82
2016-11-17T01:44:23.396Z,927.93
2016-11-17T01:45:33.722Z,928.07
2016-11-17T01:46:44.245Z,928.15
2016-11-17T01:47:54.569Z,928.27
2016-11-17T01:49:19.457Z,928.53
2016-11-17T01:50:44.354Z,928.76
2016-11-17T01:51:55.323Z,928.9
2016-11-17T01:54:30.995Z,929.07
2016-11-17T01:55:41.316Z,929
2016-11-17T01:56:51.730Z,928.99
2016-11-17T01:58:17.078Z,928.95
2016-11-17T01:59:27.514Z,928.97
2016-11-17T02:00:37.841Z,928.87
2016-11-17T02:01:48.651Z,928.71
2016-11-17T02:02:59.179Z,928.62
2016-11-17T02:04:09.669Z,928.52
2016-11-17T02:05:20.079Z,928.43
2016-11-17T02:06:30.678Z,928.23
2016-11-17T02:07:41.247Z,928.01
2016-11-17T02:08:51.910Z,927.84
2016-11-17T02:10:02.393Z,927.75
2016-11-17T02:11:12.763Z,927.78
2016-11-17T02:12:23.406Z,927.73
2016-11-17T02:13:34.188Z,927.67
2016-11-17T02:14:44.825Z,927.58
2016-11-17T02:15:55.424Z,927.53
2016-11-17T02:17:06.022Z,927.48
2016-11-17T02:18:16.668Z,927.52
2016-11-17T02:19:27.378Z,927.55
2016-11-17T02:20:37.824Z,927.58
2016-11-17T02:21:48.367Z,927.52
2016-11-17T02:22:58.881Z,927.49
2016-11-17T02:24:09.450Z,927.48
2016-11-17T02:25:20.027Z,927.49
2016-11-17T02:26:30.716Z,927.46
2016-11-17T02:27:41.149Z,927.43
2016-11-17T02:28:51.776Z,927.46
2016-11-17T02:30:02.442Z,927.44
2016-11-17T02:31:12.971Z,927.48
2016-11-17T02:32:23.490Z,927.53
2016-11-17T02:33:33.918Z,927.54
2016-11-17T02:34:44.299Z,927.6
2016-11-17T02:35:54.674Z,927.62
2016-11-17T02:37:05.113Z,927.66
2016-11-17T02:38:15.498Z,927.66
2016-11-17T02:39:25.868Z,927.71
2016-11-17T02:40:36.268Z,927.68
2016-11-17T02:41:46.687Z,927.68
2016-11-17T02:42:58.047Z,927.63
2016-11-17T02:44:08.415Z,927.62
2016-11-17T02:45:18.831Z,927.61
2016-11-17T02:46:29.389Z,927.6
2016-11-17T02:47:54.346Z,927.61
2016-11-17T02:49:04.912Z,927.6
2016-11-17T02:50:15.334Z,927.62
2016-11-17T02:51:40.354Z,927.6
2016-11-17T02:52:50.788Z,927.59
2016-11-17T02:54:16.252Z,927.64
2016-11-17T02:55:26.706Z,927.69
2016-11-17T02:56:37.150Z,927.66
2016-11-17T02:57:47.594Z,927.64
2016-11-17T02:58:58.072Z,927.55
2016-11-17T03:00:08.543Z,927.51
2016-11-17T03:01:18.972Z,927.5
2016-11-17T03:02:29.390Z,927.48
2016-11-17T03:03:39.862Z,927.49
2016-11-17T03:04:50.987Z,927.48
2016-11-17T03:06:01.413Z,927.49
2016-11-17T03:07:11.855Z,927.54
2016-11-17T03:08:22.280Z,927.51
2016-11-17T03:09:32.701Z,927.45
2016-11-17T03:10:43.113Z,927.41
2016-11-17T03:11:53.564Z,927.37
2016-11-17T03:13:03.989Z,927.36
2016-11-17T03:14:14.470Z,927.44
2016-11-17T03:15:24.907Z,927.45
2016-11-17T03:16:35.528Z,927.47
2016-11-17T03:18:00.975Z,927.46
2016-11-17T03:19:11.388Z,927.5
2016-11-17T03:20:21.877Z,927.47
2016-11-17T03:22:57.356Z,927.43
2016-11-17T03:24:08.305Z,927.44
2016-11-17T03:25:18.777Z,927.42
2016-11-17T03:26:29.273Z,927.41
2016-11-17T03:27:39.768Z,927.42
2016-11-17T03:28:50.298Z,927.42
2016-11-17T03:30:00.817Z,927.42
2016-11-17T03:31:11.288Z,927.38
2016-11-17T03:32:21.831Z,927.37
2016-11-17T03:34:57.379Z,927.32
2016-11-17T03:36:07.837Z,927.25
2016-11-17T03:37:33.377Z,927.25
2016-11-17T03:38:44.008Z,927.25
2016-11-17T03:39:54.406Z,927.3
2016-11-17T03:41:04.849Z,927.37
2016-11-17T03:42:15.238Z,927.39
2016-11-17T03:43:25.657Z,927.39
2016-11-17T03:44:36.240Z,927.35
2016-11-17T03:45:46.629Z,927.23
2016-11-17T03:46:57.055Z,927.16
2016-11-17T03:48:07.496Z,927.15
2016-11-17T03:49:17.913Z,927.16
2016-11-17T03:50:28.504Z,927.13
2016-11-17T03:51:38.943Z,927.19
2016-11-17T03:54:14.790Z,927.14
2016-11-17T03:55:25.228Z,927.13
2016-11-17T03:56:35.683Z,927.12
2016-11-17T03:57:46.085Z,927.11
2016-11-17T03:58:56.484Z,927.12
2016-11-17T04:01:32.047Z,927.21
2016-11-17T04:02:42.483Z,927.3
2016-11-17T04:03:52.898Z,927.27
2016-11-17T04:05:03.326Z,927.29
2016-11-17T04:06:13.974Z,927.29
2016-11-17T04:07:24.411Z,927.3
2016-11-17T04:08:34.838Z,927.32
2016-11-17T04:09:45.242Z,927.31
2016-11-17T04:10:55.678Z,927.32
2016-11-17T04:12:06.320Z,927.36
2016-11-17T04:13:16.757Z,927.42
2016-11-17T04:14:27.174Z,927.4
2016-11-17T04:15:37.552Z,927.44
2016-11-17T04:16:47.957Z,927.42
2016-11-17T04:17:58.586Z,927.37
2016-11-17T04:19:08.965Z,927.33
2016-11-17T04:20:19.389Z,927.3
2016-11-17T04:21:29.782Z,927.32
2016-11-17T04:22:40.205Z,927.32
2016-11-17T04:23:50.795Z,927.32
2016-11-17T04:25:01.213Z,927.31
2016-11-17T04:26:11.629Z,927.33
2016-11-17T04:27:22.503Z,927.35
2016-11-17T04:28:32.899Z,927.36
2016-11-17T04:29:43.515Z,927.34
2016-11-17T04:30:53.955Z,927.38
2016-11-17T04:32:04.359Z,927.4
2016-11-17T04:33:14.751Z,927.4
2016-11-17T04:34:25.069Z,927.38
2016-11-17T04:35:35.589Z,927.37
2016-11-17T04:36:45.909Z,927.31
2016-11-17T04:37:56.227Z,927.32
2016-11-17T04:39:06.553Z,927.31
2016-11-17T04:40:16.872Z,927.33
2016-11-17T04:41:27.390Z,927.34
2016-11-17T04:42:37.716Z,927.37
2016-11-17T04:43:48.081Z,927.41
2016-11-17T04:44:58.407Z,927.41
2016-11-17T04:46:09.204Z,927.38
2016-11-17T04:47:19.523Z,927.4
2016-11-17T04:48:29.849Z,927.38
2016-11-17T04:51:05.093Z,927.28
2016-11-17T04:52:29.984Z,927.27
2016-11-17T04:53:40.342Z,927.28
2016-11-17T04:54:50.662Z,927.26
2016-11-17T04:56:00.990Z,927.27
2016-11-17T04:57:11.317Z,927.24
2016-11-17T04:58:21.845Z,927.19
2016-11-17T04:59:32.281Z,927.23
2016-11-17T05:00:42.717Z,927.19
2016-11-17T05:01:53.155Z,927.17
2016-11-17T05:03:03.628Z,927.16
2016-11-17T05:04:14.268Z,927.18
2016-11-17T05:05:24.706Z,927.12
2016-11-17T05:06:35.183Z,927.13
2016-11-17T05:07:45.622Z,927.12
2016-11-17T05:08:56.082Z,927.11
2016-11-17T05:10:06.718Z,927.12
2016-11-17T05:11:17.156Z,927.19
2016-11-17T05:12:27.593Z,927.18
2016-11-17T05:13:38.032Z,927.19
2016-11-17T05:14:48.473Z,927.21
2016-11-17T05:15:58.911Z,927.16
2016-11-17T05:17:09.348Z,927.21
2016-11-17T05:18:19.781Z,927.22
2016-11-17T05:19:30.216Z,927.22
2016-11-17T05:20:41.143Z,927.25
2016-11-17T05:21:51.785Z,927.24
2016-11-17T05:23:02.228Z,927.23
2016-11-17T05:24:12.664Z,927.24
2016-11-17T05:25:23.128Z,927.27
2016-11-17T05:26:33.571Z,927.26
2016-11-17T05:27:44.004Z,927.3
2016-11-17T05:28:54.445Z,927.28
2016-11-17T05:30:04.886Z,927.33
2016-11-17T05:31:15.324Z,927.33
2016-11-17T05:32:25.764Z,927.31
2016-11-17T05:33:36.369Z,927.29
2016-11-17T05:34:46.687Z,927.26
2016-11-17T05:35:57.037Z,927.25
2016-11-17T05:37:07.370Z,927.27
2016-11-17T05:38:17.690Z,927.23
2016-11-17T05:39:28.014Z,927.2
2016-11-17T05:40:38.335Z,927.19
2016-11-17T05:41:48.655Z,927.2
2016-11-17T05:42:58.974Z,927.21
2016-11-17T05:44:09.294Z,927.2
2016-11-17T05:45:19.815Z,927.19
2016-11-17T05:46:30.132Z,927.19
2016-11-17T05:47:40.450Z,927.16
2016-11-17T05:48:50.768Z,927.15
2016-11-17T05:50:01.085Z,927.15
2016-11-17T05:51:11.607Z,927.13
2016-11-17T05:52:21.933Z,927.11
2016-11-17T05:53:32.252Z,927.06
2016-11-17T05:54:42.573Z,927.05
2016-11-17T05:55:52.896Z,927.03
2016-11-17T05:57:03.418Z,927.01
2016-11-17T05:58:13.738Z,927.01
2016-11-17T05:59:24.056Z,927.03
2016-11-17T06:00:34.380Z,927.05
2016-11-17T06:01:44.701Z,927.05
2016-11-17T06:02:55.222Z,927.04
2016-11-17T06:04:05.541Z,927.05
2016-11-17T06:05:15.892Z,927.04
2016-11-17T06:06:26.207Z,927
2016-11-17T06:07:36.564Z,927.02
2016-11-17T06:09:01.653Z,927.05
2016-11-17T06:10:11.974Z,927.09
2016-11-17T06:11:22.295Z,927.11
2016-11-17T06:12:32.670Z,927.15
2016-11-17T06:13:42.991Z,927.18
2016-11-17T06:14:53.311Z,927.26
2016-11-17T06:16:03.638Z,927.25
2016-11-17T06:17:13.963Z,927.23
2016-11-17T06:18:24.295Z,927.25
2016-11-17T06:19:34.610Z,927.24
2016-11-17T06:20:45.407Z,927.25
2016-11-17T06:21:55.732Z,927.25
2016-11-17T06:23:06.052Z,927.28
2016-11-17T06:24:16.406Z,927.29
2016-11-17T06:25:26.730Z,927.29
2016-11-17T06:26:37.055Z,927.33
2016-11-17T06:27:47.420Z,927.32
2016-11-17T06:28:57.742Z,927.35
2016-11-17T06:30:08.062Z,927.35
2016-11-17T06:31:33.427Z,927.41
2016-11-17T06:32:43.744Z,927.46
2016-11-17T06:33:54.060Z,927.47
2016-11-17T06:35:04.381Z,927.49
2016-11-17T06:36:14.903Z,927.54
2016-11-17T06:37:25.261Z,927.54
2016-11-17T06:38:35.587Z,927.53
2016-11-17T06:39:45.904Z,927.55
2016-11-17T06:40:56.231Z,927.58
2016-11-17T06:42:06.599Z,927.56
2016-11-17T06:43:31.583Z,927.58
2016-11-17T06:44:42.025Z,927.61
2016-11-17T06:45:52.463Z,927.61
2016-11-17T06:47:02.908Z,927.62
2016-11-17T06:48:13.342Z,927.61
2016-11-17T06:49:38.320Z,927.56
2016-11-17T06:50:48.756Z,927.52
2016-11-17T06:51:59.229Z,927.47
2016-11-17T06:53:09.873Z,927.49
2016-11-17T06:54:20.309Z,927.5
2016-11-17T06:55:30.788Z,927.49
2016-11-17T06:56:41.223Z,927.47
2016-11-17T06:57:51.860Z,927.46
2016-11-17T06:59:02.297Z,927.49
2016-11-17T07:00:12.734Z,927.54
2016-11-17T07:01:23.169Z,927.51
2016-11-17T07:02:33.638Z,927.48
2016-11-17T07:03:44.278Z,927.45
2016-11-17T07:05:09.291Z,927.48
2016-11-17T07:06:19.725Z,927.41
2016-11-17T07:07:30.165Z,927.45
2016-11-17T07:08:40.604Z,927.51
2016-11-17T07:09:51.042Z,927.56
2016-11-17T07:11:01.487Z,927.54
2016-11-17T07:12:12.421Z,927.49
2016-11-17T07:13:22.863Z,927.51
2016-11-17T07:14:33.500Z,927.5
2016-11-17T07:15:43.936Z,927.51
2016-11-17T07:16:54.371Z,927.55
2016-11-17T07:18:04.808Z,927.57
2016-11-17T07:19:15.249Z,927.6
2016-11-17T07:20:25.899Z,927.59
2016-11-17T07:21:36.338Z,927.62
2016-11-17T07:22:46.826Z,927.62
2016-11-17T07:23:57.364Z,927.57
2016-11-17T07:25:07.895Z,927.54
2016-11-17T07:26:18.625Z,927.48
2016-11-17T07:27:29.153Z,927.46
2016-11-17T07:28:39.749Z,927.41
2016-11-17T07:29:50.277Z,927.37
2016-11-17T07:31:00.807Z,927.33
2016-11-17T07:32:11.537Z,927.3
2016-11-17T07:33:22.067Z,927.32
2016-11-17T07:34:32.598Z,927.27
2016-11-17T07:35:43.125Z,927.3
2016-11-17T07:36:53.656Z,927.31
2016-11-17T07:38:04.219Z,927.3
2016-11-17T07:39:14.747Z,927.28
2016-11-17T07:40:25.279Z,927.29
2016-11-17T07:41:35.810Z,927.28
2016-11-17T07:42:46.343Z,927.33
2016-11-17T07:43:57.075Z,927.34
2016-11-17T07:45:07.606Z,927.33
2016-11-17T07:46:18.134Z,927.26
2016-11-17T07:47:28.669Z,927.22
2016-11-17T07:48:39.200Z,927.25
2016-11-17T07:50:04.981Z,927.31
2016-11-17T07:51:15.515Z,927.33
2016-11-17T07:52:26.074Z,927.29
2016-11-17T07:53:36.634Z,927.34
2016-11-17T07:54:47.369Z,927.37
2016-11-17T07:55:57.898Z,927.4
2016-11-17T07:57:08.460Z,927.43
2016-11-17T07:58:19.027Z,927.44
2016-11-17T07:59:29.555Z,927.47
2016-11-17T08:00:40.285Z,927.52
2016-11-17T08:01:50.814Z,927.51
2016-11-17T08:03:01.343Z,927.5
2016-11-17T08:04:11.880Z,927.54
2016-11-17T08:05:22.906Z,927.59
2016-11-17T08:06:34.137Z,927.61
2016-11-17T08:07:59.159Z,927.64
2016-11-17T08:09:09.590Z,927.66
2016-11-17T08:10:20.028Z,927.64
2016-11-17T08:11:45.208Z,927.67
2016-11-17T08:12:55.675Z,927.71
2016-11-17T08:14:06.113Z,927.75
2016-11-17T08:15:16.555Z,927.79
2016-11-17T08:16:26.994Z,927.85
2016-11-17T08:17:37.719Z,927.85
2016-11-17T08:18:48.207Z,927.85
2016-11-17T08:19:58.642Z,927.84
2016-11-17T08:21:09.080Z,927.86
2016-11-17T08:22:19.523Z,927.9
2016-11-17T08:23:30.161Z,927.91
2016-11-17T08:24:40.592Z,927.92
2016-11-17T08:25:50.914Z,927.91
2016-11-17T08:27:01.710Z,927.92
2016-11-17T08:28:12.031Z,927.95
2016-11-17T08:29:37.118Z,927.93
2016-11-17T08:30:47.437Z,927.93
2016-11-17T08:31:57.757Z,927.98
2016-11-17T08:33:08.676Z,927.94
2016-11-17T08:34:19.006Z,927.95
2016-11-17T08:35:29.328Z,928
2016-11-17T08:36:39.649Z,928.03
2016-11-17T08:37:49.965Z,928.06
2016-11-17T08:39:00.361Z,928.05
2016-11-17T08:40:10.699Z,928.04
2016-11-17T08:41:21.215Z,928.04
2016-11-17T08:42:31.535Z,928.11
2016-11-17T08:43:41.856Z,928.1
2016-11-17T08:44:52.182Z,928.13
2016-11-17T08:46:02.501Z,928.14
2016-11-17T08:47:13.020Z,928.14
2016-11-17T08:48:23.342Z,928.17
2016-11-17T08:49:33.666Z,928.2
2016-11-17T08:50:43.987Z,928.22
2016-11-17T08:51:54.340Z,928.25
2016-11-17T08:53:04.875Z,928.23
2016-11-17T08:54:15.236Z,928.21
2016-11-17T08:55:25.587Z,928.27
2016-11-17T08:56:35.907Z,928.23
2016-11-17T08:58:00.795Z,928.24
2016-11-17T08:59:11.326Z,928.3
2016-11-17T09:00:21.644Z,928.29
2016-11-17T09:01:46.619Z,928.32
2016-11-17T09:02:57.061Z,928.33
2016-11-17T09:04:08.191Z,928.26
2016-11-17T09:05:18.625Z,928.31
2016-11-17T09:06:29.093Z,928.34
2016-11-17T09:07:39.532Z,928.34
2016-11-17T09:08:50.206Z,928.36
2016-11-17T09:10:00.648Z,928.36
2016-11-17T09:11:11.087Z,928.37
2016-11-17T09:12:21.526Z,928.39
2016-11-17T09:13:31.968Z,928.43
2016-11-17T09:14:42.419Z,928.47
2016-11-17T09:15:52.855Z,928.49
2016-11-17T09:17:03.292Z,928.52
2016-11-17T09:18:13.729Z,928.52
2016-11-17T09:19:38.712Z,928.54
2016-11-17T09:20:49.152Z,928.6
2016-11-17T09:21:59.590Z,928.62
2016-11-17T09:23:10.031Z,928.57
2016-11-17T09:24:35.011Z,928.62
2016-11-17T09:25:45.448Z,928.59
2016-11-17T09:28:20.864Z,928.57
2016-11-17T09:29:31.301Z,928.56
2016-11-17T09:30:41.741Z,928.54
2016-11-17T09:31:52.179Z,928.54
2016-11-17T09:33:02.660Z,928.58
2016-11-17T09:34:13.098Z,928.61
2016-11-17T09:35:23.525Z,928.63
2016-11-17T09:36:34.052Z,928.62
2016-11-17T09:37:44.373Z,928.62
2016-11-17T09:38:54.698Z,928.64
2016-11-17T09:40:05.016Z,928.7
2016-11-17T09:41:15.345Z,928.69
2016-11-17T09:42:25.879Z,928.72
2016-11-17T09:43:36.231Z,928.69
2016-11-17T09:44:46.559Z,928.69
2016-11-17T09:45:57.351Z,928.68
2016-11-17T09:47:08.144Z,928.73
2016-11-17T09:48:33.236Z,928.65
2016-11-17T09:49:44.028Z,928.67
2016-11-17T09:50:54.344Z,928.67
2016-11-17T09:52:04.667Z,928.69
2016-11-17T09:53:29.757Z,928.66
2016-11-17T09:54:40.075Z,928.69
2016-11-17T09:55:50.394Z,928.67
2016-11-17T09:57:01.190Z,928.67
2016-11-17T09:58:11.514Z,928.67
2016-11-17T09:59:22.033Z,928.67
2016-11-17T10:00:32.352Z,928.67
2016-11-17T10:01:42.672Z,928.71
2016-11-17T10:02:52.995Z,928.65
2016-11-17T10:04:03.314Z,928.61
2016-11-17T10:05:13.634Z,928.59
2016-11-17T10:06:24.431Z,928.62
2016-11-17T10:07:34.751Z,928.63
2016-11-17T10:08:45.070Z,928.61
2016-11-17T10:09:55.396Z,928.64
2016-11-17T10:11:05.717Z,928.65
2016-11-17T10:12:16.039Z,928.63
2016-11-17T10:13:26.403Z,928.65
2016-11-17T10:14:36.724Z,928.67
2016-11-17T10:15:47.083Z,928.68
2016-11-17T10:16:57.404Z,928.69
2016-11-17T10:18:07.723Z,928.71
2016-11-17T10:19:18.053Z,928.72
2016-11-17T10:20:28.378Z,928.8
2016-11-17T10:21:38.698Z,928.74
2016-11-17T10:22:49.017Z,928.76
2016-11-17T10:23:59.809Z,928.79
2016-11-17T10:25:10.131Z,928.75
2016-11-17T10:26:20.455Z,928.72
2016-11-17T10:27:30.779Z,928.76
2016-11-17T10:28:41.299Z,928.78
2016-11-17T10:29:51.622Z,928.76
2016-11-17T10:31:01.942Z,928.8
2016-11-17T10:32:12.269Z,928.82
2016-11-17T10:33:22.588Z,928.86
2016-11-17T10:34:33.110Z,928.89
2016-11-17T10:35:43.431Z,928.89
2016-11-17T10:36:53.753Z,928.92
2016-11-17T10:38:04.079Z,928.92
2016-11-17T10:39:14.401Z,928.96
2016-11-17T10:40:24.926Z,928.94
2016-11-17T10:41:35.251Z,928.95
2016-11-17T10:43:00.139Z,928.94
2016-11-17T10:44:10.465Z,928.95
2016-11-17T10:45:20.795Z,928.99
2016-11-17T10:46:31.236Z,928.94
2016-11-17T10:47:41.677Z,928.95
2016-11-17T10:48:52.118Z,929.02
2016-11-17T10:50:02.559Z,929.01
2016-11-17T10:51:13.197Z,929.04
2016-11-17T10:52:23.634Z,929.03
2016-11-17T10:53:34.074Z,929
2016-11-17T10:54:44.516Z,928.96
2016-11-17T10:57:20.193Z,929.04
2016-11-17T10:58:31.122Z,928.97
2016-11-17T10:59:41.560Z,928.96
2016-11-17T11:00:52.000Z,928.99
2016-11-17T11:02:02.435Z,929.01
2016-11-17T11:03:13.419Z,928.99
2016-11-17T11:04:23.866Z,929
2016-11-17T11:05:48.849Z,928.99
2016-11-17T11:06:59.283Z,929.05
2016-11-17T11:08:24.265Z,929.09
2016-11-17T11:09:34.702Z,929.13
2016-11-17T11:10:45.630Z,929.09
2016-11-17T11:11:56.068Z,929.1
2016-11-17T11:13:21.079Z,929.06
2016-11-17T11:14:31.518Z,929.08
2016-11-17T11:15:41.991Z,929.11
2016-11-17T11:17:06.973Z,929.07
2016-11-17T11:18:32.260Z,929.08
2016-11-17T11:19:42.709Z,929.15
2016-11-17T11:20:53.110Z,929.12
2016-11-17T11:22:03.428Z,929.12
2016-11-17T11:23:13.947Z,929.14
2016-11-17T11:24:24.271Z,929.15
2016-11-17T11:25:35.234Z,929.11
2016-11-17T11:26:45.554Z,929.1
2016-11-17T11:27:55.877Z,929.11
2016-11-17T11:29:06.403Z,929.17
2016-11-17T11:30:16.734Z,929.16
2016-11-17T11:31:27.056Z,929.2
2016-11-17T11:32:37.376Z,929.2
2016-11-17T11:33:48.213Z,929.17
2016-11-17T11:34:58.530Z,929.22
2016-11-17T11:36:08.882Z,929.17
2016-11-17T11:37:19.201Z,929.16
2016-11-17T11:38:29.520Z,929.18
2016-11-17T11:39:40.331Z,929.2
2016-11-17T11:40:50.654Z,929.24
2016-11-17T11:42:00.978Z,929.24
2016-11-17T11:43:11.300Z,929.24
2016-11-17T11:44:21.617Z,929.32
2016-11-17T11:45:31.946Z,929.29
2016-11-17T11:46:57.033Z,929.35
2016-11-17T11:48:07.831Z,929.34
2016-11-17T11:49:18.151Z,929.3
2016-11-17T11:50:28.477Z,929.33
2016-11-17T11:51:38.819Z,929.35
2016-11-17T11:52:49.430Z,929.37
2016-11-17T11:53:59.847Z,929.38
2016-11-17T11:55:10.260Z,929.37
2016-11-17T11:56:20.666Z,929.36
2016-11-17T11:57:45.833Z,929.37
2016-11-17T11:58:56.245Z,929.34
2016-11-17T12:01:31.622Z,929.35
2016-11-17T12:02:42.040Z,929.34
2016-11-17T12:03:52.455Z,929.36
2016-11-17T12:05:02.866Z,929.38
2016-11-17T12:06:13.274Z,929.36
2016-11-17T12:07:38.235Z,929.32
2016-11-17T12:08:48.689Z,929.34
2016-11-17T12:09:59.101Z,929.36
2016-11-17T12:11:09.513Z,929.34
2016-11-17T12:12:19.924Z,929.4
2016-11-17T12:13:30.338Z,929.37
2016-11-17T12:14:55.299Z,929.39
2016-11-17T12:16:06.198Z,929.42
2016-11-17T12:17:16.610Z,929.44
2016-11-17T12:18:27.508Z,929.4
2016-11-17T12:19:38.120Z,929.41
2016-11-17T12:20:48.532Z,929.44
2016-11-17T12:22:13.500Z,929.44
2016-11-17T12:23:53.023Z,929.39
2016-11-17T12:25:03.636Z,929.35
2016-11-17T12:26:14.055Z,929.39
2016-11-17T12:28:49.430Z,929.39
2016-11-17T12:29:59.836Z,929.39
2016-11-17T12:31:10.246Z,929.37
2016-11-17T12:32:20.666Z,929.33
2016-11-17T12:33:31.078Z,929.34
2016-11-17T12:34:42.003Z,929.32
2016-11-17T12:37:17.376Z,929.33
2016-11-17T12:38:27.788Z,929.31
2016-11-17T12:39:38.297Z,929.29
2016-11-17T12:40:48.709Z,929.31
2016-11-17T12:41:59.325Z,929.3
2016-11-17T12:43:09.746Z,929.33
2016-11-17T12:44:20.155Z,929.34
2016-11-17T12:45:30.775Z,929.33
2016-11-17T12:46:41.394Z,929.32
2016-11-17T12:47:52.027Z,929.3
2016-11-17T12:49:04.648Z,929.32
2016-11-17T12:50:18.458Z,929.29
2016-11-17T12:51:28.874Z,929.26
2016-11-17T12:52:39.283Z,929.31
2016-11-17T12:53:49.697Z,929.3
2016-11-17T12:55:00.108Z,929.29
2016-11-17T12:56:10.521Z,929.31
2016-11-17T12:57:20.938Z,929.33
2016-11-17T12:58:45.913Z,929.28
2016-11-17T12:59:56.326Z,929.28
2016-11-17T13:01:06.746Z,929.22
2016-11-17T13:02:17.158Z,929.24
2016-11-17T13:03:27.609Z,929.26
2016-11-17T13:04:38.040Z,929.32
2016-11-17T13:05:48.591Z,929.34
2016-11-17T13:06:59.780Z,929.34
2016-11-17T13:09:37.127Z,929.29
2016-11-17T13:10:48.196Z,929.25
2016-11-17T13:11:59.190Z,929.26
2016-11-17T13:13:10.979Z,929.23
2016-11-17T13:16:01.874Z,929.18
2016-11-17T13:17:13.432Z,929.21
2016-11-17T13:18:23.969Z,929.22
2016-11-17T13:19:34.507Z,929.19
2016-11-17T13:20:45.078Z,929.15
2016-11-17T13:21:55.617Z,929.17
2016-11-17T13:23:06.192Z,929.2
2016-11-17T13:24:16.935Z,929.16
2016-11-17T13:25:27.505Z,929.18
2016-11-17T13:26:52.572Z,929.19
2016-11-17T13:28:18.139Z,929.16
2016-11-17T13:29:28.876Z,929.11
2016-11-17T13:30:39.419Z,929.11
2016-11-17T13:31:49.956Z,929.11
2016-11-17T13:33:00.497Z,929.1
2016-11-17T13:34:11.037Z,929.15
2016-11-17T13:35:21.577Z,929.12
2016-11-17T13:36:32.112Z,929.1
2016-11-17T13:37:42.651Z,929.13
2016-11-17T13:38:53.188Z,929.08
2016-11-17T13:40:03.724Z,929.05
2016-11-17T13:41:14.263Z,929.07
2016-11-17T13:42:25.309Z,929.07
2016-11-17T13:43:35.848Z,929.06
2016-11-17T13:44:47.086Z,929.02
2016-11-17T13:45:57.626Z,929.03
2016-11-17T13:47:08.192Z,929
2016-11-17T13:48:18.730Z,928.94
2016-11-17T13:49:29.267Z,928.9
2016-11-17T13:50:39.801Z,928.88
2016-11-17T13:52:04.873Z,928.87
2016-11-17T13:53:15.611Z,928.89
2016-11-17T13:54:26.151Z,928.9
2016-11-17T13:55:36.691Z,928.92
2016-11-17T13:57:01.761Z,928.93
2016-11-17T13:58:12.693Z,928.93
2016-11-17T13:59:37.759Z,928.93
2016-11-17T14:00:48.298Z,928.89
2016-11-17T14:02:13.364Z,928.9
2016-11-17T14:03:24.400Z,928.89
2016-11-17T14:04:35.442Z,928.88
2016-11-17T14:05:46.018Z,928.87
2016-11-17T14:07:11.067Z,928.87
2016-11-17T14:08:21.717Z,928.89
2016-11-17T14:09:46.712Z,928.83
2016-11-17T14:10:57.655Z,928.8
2016-11-17T14:12:08.097Z,928.81
2016-11-17T14:13:18.741Z,928.76
2016-11-17T14:14:29.192Z,928.77
2016-11-17T14:15:40.322Z,928.73
2016-11-17T14:17:05.315Z,928.67
2016-11-17T14:18:15.760Z,928.68
2016-11-17T14:19:26.205Z,928.63
2016-11-17T14:20:36.650Z,928.69
2016-11-17T14:21:47.096Z,928.7
2016-11-17T14:22:57.546Z,928.71
2016-11-17T14:24:07.988Z,928.67
2016-11-17T14:25:18.434Z,928.68
2016-11-17T14:26:29.366Z,928.64
2016-11-17T14:27:40.300Z,928.67
2016-11-17T14:29:05.292Z,928.64
2016-11-17T14:30:15.743Z,928.63
2016-11-17T14:31:26.186Z,928.66
2016-11-17T14:32:36.629Z,928.65
2016-11-17T14:34:01.623Z,928.62
2016-11-17T14:35:12.107Z,928.66
2016-11-17T14:36:22.557Z,928.63
2016-11-17T14:37:33.005Z,928.66
2016-11-17T14:38:43.451Z,928.71
2016-11-17T14:39:53.898Z,928.63
2016-11-17T14:41:04.347Z,928.62
2016-11-17T14:42:14.791Z,928.68
2016-11-17T14:43:25.235Z,928.64
2016-11-17T14:44:35.886Z,928.65
2016-11-17T14:47:11.814Z,928.55
2016-11-17T14:48:22.258Z,928.52
2016-11-17T14:49:32.695Z,928.55
2016-11-17T14:50:57.597Z,928.53
2016-11-17T14:52:09.731Z,928.5
2016-11-17T14:53:20.152Z,928.47
2016-11-17T14:54:45.126Z,928.48
2016-11-17T14:55:56.037Z,928.51
2016-11-17T14:57:21.008Z,928.42
2016-11-17T14:58:31.424Z,928.45
2016-11-17T14:59:41.841Z,928.48
2016-11-17T15:00:52.261Z,928.42
2016-11-17T15:02:03.202Z,928.44
2016-11-17T15:03:13.619Z,928.45
2016-11-17T15:04:24.038Z,928.44
2016-11-17T15:05:34.455Z,928.42
2016-11-17T15:06:45.071Z,928.41
2016-11-17T15:07:55.488Z,928.39
2016-11-17T15:09:05.911Z,928.4
2016-11-17T15:10:16.333Z,928.36
2016-11-17T15:11:26.763Z,928.33
2016-11-17T15:12:37.183Z,928.33
2016-11-17T15:13:47.596Z,928.27
2016-11-17T15:15:12.566Z,928.22
2016-11-17T15:16:22.986Z,928.23
2016-11-17T15:17:33.410Z,928.23
2016-11-17T15:18:43.827Z,928.19
2016-11-17T15:19:54.245Z,928.18